sensor_id;sensor_type;location;lat;lon;timestamp;pressure;altitude;pressure_sealevel;temperature;humidity
10135;BME280;5107;48.850;8.924;2023-11-18T00:00:19;97611.22;;;5.82;94.37
10135;BME280;5107;48.850;8.924;2023-11-18T00:02:44;97615.50;;;5.83;94.54
10135;BME280;5107;48.850;8.924;2023-11-18T00:05:10;97606.22;;;5.79;95.38
10135;BME280;5107;48.850;8.924;2023-11-18T00:07:36;97609.22;;;5.85;95.56
10135;BME280;5107;48.850;8.924;2023-11-18T00:10:02;97604.94;;;5.84;95.82
10135;BME280;5107;48.850;8.924;2023-11-18T00:12:27;97611.75;;;5.98;95.04
10135;BME280;5107;48.850;8.924;2023-11-18T00:14:53;97613.03;;;6.03;94.00
10135;BME280;5107;48.850;8.924;2023-11-18T00:17:18;97603.31;;;6.05;94.12
10135;BME280;5107;48.850;8.924;2023-11-18T00:19:45;97608.19;;;6.10;94.13
10135;BME280;5107;48.850;8.924;2023-11-18T00:22:10;97602.59;;;6.15;93.62
10135;BME280;5107;48.850;8.924;2023-11-18T00:24:37;97603.66;;;6.12;93.35
10135;BME280;5107;48.850;8.924;2023-11-18T00:27:03;97602.00;;;6.00;93.54
10135;BME280;5107;48.850;8.924;2023-11-18T00:29:33;97603.88;;;5.87;94.36
10135;BME280;5107;48.850;8.924;2023-11-18T00:31:58;97608.72;;;5.80;95.25
10135;BME280;5107;48.850;8.924;2023-11-18T00:34:24;97606.81;;;5.71;95.46
10135;BME280;5107;48.850;8.924;2023-11-18T00:36:49;97609.69;;;5.68;96.11
10135;BME280;5107;48.850;8.924;2023-11-18T00:39:14;97600.31;;;5.65;96.87
10135;BME280;5107;48.850;8.924;2023-11-18T00:41:40;97599.84;;;5.60;96.73
10135;BME280;5107;48.850;8.924;2023-11-18T00:44:05;97596.84;;;5.54;97.53
10135;BME280;5107;48.850;8.924;2023-11-18T00:46:32;97584.16;;;5.49;98.32
10135;BME280;5107;48.850;8.924;2023-11-18T00:49:01;97598.59;;;5.53;98.86
10135;BME280;5107;48.850;8.924;2023-11-18T00:51:26;97599.19;;;5.46;99.04
10135;BME280;5107;48.850;8.924;2023-11-18T00:53:53;97599.31;;;5.44;98.85
10135;BME280;5107;48.850;8.924;2023-11-18T00:56:20;97605.81;;;5.39;99.04
10135;BME280;5107;48.850;8.924;2023-11-18T00:58:49;97608.69;;;5.36;99.12
10135;BME280;5107;48.850;8.924;2023-11-18T01:01:15;97599.53;;;5.30;99.11
10135;BME280;5107;48.850;8.924;2023-11-18T01:03:45;97601.28;;;5.29;99.33
10135;BME280;5107;48.850;8.924;2023-11-18T01:06:11;97603.56;;;5.34;99.73
10135;BME280;5107;48.850;8.924;2023-11-18T01:08:37;97602.97;;;5.30;99.43
10135;BME280;5107;48.850;8.924;2023-11-18T01:11:02;97603.78;;;5.31;99.06
10135;BME280;5107;48.850;8.924;2023-11-18T01:13:29;97599.88;;;5.37;99.55
10135;BME280;5107;48.850;8.924;2023-11-18T01:15:55;97613.06;;;5.35;98.13
10135;BME280;5107;48.850;8.924;2023-11-18T01:18:20;97612.09;;;5.36;98.03
10135;BME280;5107;48.850;8.924;2023-11-18T01:20:46;97614.38;;;5.41;97.90
10135;BME280;5107;48.850;8.924;2023-11-18T01:23:12;97621.59;;;5.37;97.28
10135;BME280;5107;48.850;8.924;2023-11-18T01:25:38;97621.84;;;5.34;97.08
10135;BME280;5107;48.850;8.924;2023-11-18T01:28:05;97631.34;;;5.35;97.22
10135;BME280;5107;48.850;8.924;2023-11-18T01:30:33;97625.50;;;5.31;96.82
10135;BME280;5107;48.850;8.924;2023-11-18T01:32:59;97633.22;;;5.33;97.47
10135;BME280;5107;48.850;8.924;2023-11-18T01:35:27;97634.88;;;5.34;97.39
10135;BME280;5107;48.850;8.924;2023-11-18T01:37:53;97632.28;;;5.34;97.04
10135;BME280;5107;48.850;8.924;2023-11-18T01:40:20;97625.50;;;5.31;97.69
10135;BME280;5107;48.850;8.924;2023-11-18T01:42:46;97627.28;;;5.31;97.81
10135;BME280;5107;48.850;8.924;2023-11-18T01:45:12;97630.97;;;5.40;98.00
10135;BME280;5107;48.850;8.924;2023-11-18T01:47:40;97633.47;;;5.41;98.08
10135;BME280;5107;48.850;8.924;2023-11-18T01:50:07;97632.88;;;5.38;98.56
10135;BME280;5107;48.850;8.924;2023-11-18T01:52:34;97632.78;;;5.61;97.17
10135;BME280;5107;48.850;8.924;2023-11-18T01:55:01;97628.41;;;5.62;96.05
10135;BME280;5107;48.850;8.924;2023-11-18T01:57:26;97637.75;;;5.53;96.20
10135;BME280;5107;48.850;8.924;2023-11-18T01:59:53;97635.25;;;5.41;96.92
10135;BME280;5107;48.850;8.924;2023-11-18T02:02:19;97632.03;;;5.37;97.54
10135;BME280;5107;48.850;8.924;2023-11-18T02:04:46;97624.94;;;5.39;97.47
10135;BME280;5107;48.850;8.924;2023-11-18T02:07:11;97632.53;;;5.42;98.24
10135;BME280;5107;48.850;8.924;2023-11-18T02:09:40;97623.75;;;5.43;97.45
10135;BME280;5107;48.850;8.924;2023-11-18T02:14:39;97625.28;;;5.34;97.39
10135;BME280;5107;48.850;8.924;2023-11-18T02:17:05;97622.53;;;5.36;97.28
10135;BME280;5107;48.850;8.924;2023-11-18T02:19:32;97617.81;;;5.41;97.87
10135;BME280;5107;48.850;8.924;2023-11-18T02:21:59;97635.16;;;5.42;97.22
10135;BME280;5107;48.850;8.924;2023-11-18T02:24:29;97635.84;;;5.44;96.73
10135;BME280;5107;48.850;8.924;2023-11-18T02:27:03;97624.81;;;5.41;96.00
10135;BME280;5107;48.850;8.924;2023-11-18T02:29:36;97621.84;;;5.34;95.75
10135;BME280;5107;48.850;8.924;2023-11-18T02:35:14;97626.56;;;5.29;95.97
10135;BME280;5107;48.850;8.924;2023-11-18T02:37:44;97628.22;;;5.19;95.89
10135;BME280;5107;48.850;8.924;2023-11-18T02:40:12;97631.88;;;5.16;96.16
10135;BME280;5107;48.850;8.924;2023-11-18T02:42:41;97621.75;;;5.12;96.93
10135;BME280;5107;48.850;8.924;2023-11-18T02:45:09;97636.53;;;5.00;96.84
10135;BME280;5107;48.850;8.924;2023-11-18T02:47:40;97635.34;;;5.04;96.46
10135;BME280;5107;48.850;8.924;2023-11-18T02:50:06;97633.25;;;5.09;96.58
10135;BME280;5107;48.850;8.924;2023-11-18T02:52:38;97633.59;;;5.05;95.90
10135;BME280;5107;48.850;8.924;2023-11-18T02:55:05;97629.41;;;5.02;96.20
10135;BME280;5107;48.850;8.924;2023-11-18T02:57:38;97626.88;;;4.89;97.33
10135;BME280;5107;48.850;8.924;2023-11-18T03:00:07;97627.25;;;4.85;97.47
10135;BME280;5107;48.850;8.924;2023-11-18T03:02:41;97627.72;;;4.90;97.97
10135;BME280;5107;48.850;8.924;2023-11-18T03:05:07;97625.84;;;4.92;97.70
10135;BME280;5107;48.850;8.924;2023-11-18T03:07:34;97620.09;;;5.11;96.55
10135;BME280;5107;48.850;8.924;2023-11-18T03:09:59;97626.94;;;5.01;97.20
10135;BME280;5107;48.850;8.924;2023-11-18T03:12:25;97624.09;;;5.04;97.10
10135;BME280;5107;48.850;8.924;2023-11-18T03:14:54;97619.66;;;5.17;95.70
10135;BME280;5107;48.850;8.924;2023-11-18T03:17:19;97620.47;;;5.17;94.41
10135;BME280;5107;48.850;8.924;2023-11-18T03:19:45;97616.09;;;5.18;94.73
10135;BME280;5107;48.850;8.924;2023-11-18T03:22:10;97610.38;;;5.13;94.90
10135;BME280;5107;48.850;8.924;2023-11-18T03:24:38;97617.88;;;5.17;94.85
10135;BME280;5107;48.850;8.924;2023-11-18T03:27:03;97617.25;;;5.14;95.39
10135;BME280;5107;48.850;8.924;2023-11-18T03:29:28;97615.69;;;5.11;95.31
10135;BME280;5107;48.850;8.924;2023-11-18T03:31:54;97612.03;;;5.14;95.84
10135;BME280;5107;48.850;8.924;2023-11-18T03:34:19;97622.09;;;5.07;96.50
10135;BME280;5107;48.850;8.924;2023-11-18T03:36:48;97628.72;;;5.00;96.87
10135;BME280;5107;48.850;8.924;2023-11-18T03:39:13;97633.25;;;4.85;97.29
10135;BME280;5107;48.850;8.924;2023-11-18T03:41:40;97631.00;;;4.81;98.23
10135;BME280;5107;48.850;8.924;2023-11-18T03:44:05;97628.19;;;4.84;98.18
10135;BME280;5107;48.850;8.924;2023-11-18T03:46:33;97628.66;;;4.89;97.27
10135;BME280;5107;48.850;8.924;2023-11-18T03:49:04;97631.00;;;4.81;96.93
10135;BME280;5107;48.850;8.924;2023-11-18T03:51:30;97628.56;;;4.90;96.82
10135;BME280;5107;48.850;8.924;2023-11-18T03:53:55;97618.34;;;4.87;95.54
10135;BME280;5107;48.850;8.924;2023-11-18T03:56:21;97619.84;;;4.79;95.82
10135;BME280;5107;48.850;8.924;2023-11-18T03:58:46;97625.22;;;4.88;95.97
10135;BME280;5107;48.850;8.924;2023-11-18T04:01:25;97627.34;;;4.83;94.70
10135;BME280;5107;48.850;8.924;2023-11-18T04:04:00;97624.78;;;4.71;96.15
10135;BME280;5107;48.850;8.924;2023-11-18T04:06:25;97621.78;;;4.64;96.54
10135;BME280;5107;48.850;8.924;2023-11-18T04:08:51;97626.00;;;4.78;95.42
10135;BME280;5107;48.850;8.924;2023-11-18T04:11:16;97631.72;;;4.83;93.79
10135;BME280;5107;48.850;8.924;2023-11-18T04:13:42;97624.34;;;4.77;93.35
10135;BME280;5107;48.850;8.924;2023-11-18T04:16:14;97624.47;;;4.75;93.47
10135;BME280;5107;48.850;8.924;2023-11-18T04:18:44;97632.38;;;4.74;94.34
10135;BME280;5107;48.850;8.924;2023-11-18T04:21:10;97639.69;;;4.69;94.15
10135;BME280;5107;48.850;8.924;2023-11-18T04:23:37;97637.13;;;4.56;93.58
10135;BME280;5107;48.850;8.924;2023-11-18T04:26:06;97631.16;;;4.43;94.82
10135;BME280;5107;48.850;8.924;2023-11-18T04:28:32;97629.41;;;4.31;95.31
10135;BME280;5107;48.850;8.924;2023-11-18T04:30:58;97624.63;;;4.25;96.23
10135;BME280;5107;48.850;8.924;2023-11-18T04:33:23;97616.72;;;4.26;96.29
10135;BME280;5107;48.850;8.924;2023-11-18T04:35:52;97619.03;;;4.18;96.44
10135;BME280;5107;48.850;8.924;2023-11-18T04:38:18;97614.03;;;4.15;96.47
10135;BME280;5107;48.850;8.924;2023-11-18T04:40:44;97607.25;;;4.12;97.19
10135;BME280;5107;48.850;8.924;2023-11-18T04:43:11;97606.22;;;4.15;97.00
10135;BME280;5107;48.850;8.924;2023-11-18T04:45:37;97614.13;;;4.13;97.23
10135;BME280;5107;48.850;8.924;2023-11-18T04:48:03;97615.34;;;4.20;96.63
10135;BME280;5107;48.850;8.924;2023-11-18T04:50:29;97622.03;;;4.12;96.69
10135;BME280;5107;48.850;8.924;2023-11-18T04:52:55;97615.06;;;4.12;97.37
10135;BME280;5107;48.850;8.924;2023-11-18T04:55:21;97617.75;;;4.11;97.01
10135;BME280;5107;48.850;8.924;2023-11-18T04:57:46;97611.03;;;4.08;96.39
10135;BME280;5107;48.850;8.924;2023-11-18T05:00:12;97611.44;;;4.02;96.08
10135;BME280;5107;48.850;8.924;2023-11-18T05:02:41;97612.38;;;4.01;96.41
10135;BME280;5107;48.850;8.924;2023-11-18T05:05:08;97612.38;;;4.01;96.10
10135;BME280;5107;48.850;8.924;2023-11-18T05:07:33;97597.72;;;4.00;96.39
10135;BME280;5107;48.850;8.924;2023-11-18T05:10:00;97610.72;;;4.00;97.11
10135;BME280;5107;48.850;8.924;2023-11-18T05:12:25;97600.31;;;4.00;96.73
10135;BME280;5107;48.850;8.924;2023-11-18T05:14:51;97605.50;;;4.00;96.73
10135;BME280;5107;48.850;8.924;2023-11-18T05:17:16;97608.81;;;4.02;96.08
10135;BME280;5107;48.850;8.924;2023-11-18T05:19:42;97598.75;;;3.98;96.16
10135;BME280;5107;48.850;8.924;2023-11-18T05:22:08;97598.94;;;3.95;96.18
10135;BME280;5107;48.850;8.924;2023-11-18T05:24:34;97608.75;;;3.91;96.33
10135;BME280;5107;48.850;8.924;2023-11-18T05:26:59;97604.59;;;3.89;96.38
10135;BME280;5107;48.850;8.924;2023-11-18T05:29:28;97607.91;;;3.91;96.66
10135;BME280;5107;48.850;8.924;2023-11-18T05:31:53;97608.13;;;3.88;96.24
10135;BME280;5107;48.850;8.924;2023-11-18T05:34:23;97599.91;;;3.81;96.89
10135;BME280;5107;48.850;8.924;2023-11-18T05:36:48;97611.16;;;3.81;97.33
10135;BME280;5107;48.850;8.924;2023-11-18T05:39:19;97618.31;;;3.78;97.32
10135;BME280;5107;48.850;8.924;2023-11-18T05:41:45;97607.50;;;3.71;97.19
10135;BME280;5107;48.850;8.924;2023-11-18T05:44:15;97614.50;;;3.71;97.64
10135;BME280;5107;48.850;8.924;2023-11-18T05:46:45;97607.00;;;3.66;97.80
10135;BME280;5107;48.850;8.924;2023-11-18T05:49:12;97608.25;;;3.61;97.92
10135;BME280;5107;48.850;8.924;2023-11-18T05:51:39;97608.97;;;3.63;98.41
10135;BME280;5107;48.850;8.924;2023-11-18T05:54:08;97604.19;;;3.57;98.22
10135;BME280;5107;48.850;8.924;2023-11-18T05:56:33;97606.38;;;3.50;97.87
10135;BME280;5107;48.850;8.924;2023-11-18T05:58:59;97599.81;;;3.44;98.63
10135;BME280;5107;48.850;8.924;2023-11-18T06:01:24;97595.97;;;3.37;98.81
10135;BME280;5107;48.850;8.924;2023-11-18T06:03:52;97587.22;;;3.38;99.58
10135;BME280;5107;48.850;8.924;2023-11-18T06:06:18;97595.88;;;3.39;99.13
10135;BME280;5107;48.850;8.924;2023-11-18T06:08:46;97606.06;;;3.42;99.37
10135;BME280;5107;48.850;8.924;2023-11-18T06:11:14;97607.09;;;3.39;99.46
10135;BME280;5107;48.850;8.924;2023-11-18T06:13:40;97601.91;;;3.39;99.08
10135;BME280;5107;48.850;8.924;2023-11-18T06:16:15;97590.03;;;3.35;98.48
10135;BME280;5107;48.850;8.924;2023-11-18T06:18:44;97585.78;;;3.34;99.16
10135;BME280;5107;48.850;8.924;2023-11-18T06:21:17;97592.63;;;3.35;98.86
10135;BME280;5107;48.850;8.924;2023-11-18T06:23:44;97588.78;;;3.28;98.93
10135;BME280;5107;48.850;8.924;2023-11-18T06:26:11;97600.09;;;3.27;99.00
10135;BME280;5107;48.850;8.924;2023-11-18T06:28:40;97612.59;;;3.22;99.32
10135;BME280;5107;48.850;8.924;2023-11-18T06:31:06;97615.28;;;3.21;99.37
10135;BME280;5107;48.850;8.924;2023-11-18T06:33:44;97622.66;;;3.14;99.65
10135;BME280;5107;48.850;8.924;2023-11-18T06:36:16;97612.38;;;3.13;99.76
10135;BME280;5107;48.850;8.924;2023-11-18T06:38:45;97618.41;;;3.13;100.00
10135;BME280;5107;48.850;8.924;2023-11-18T06:41:14;97628.81;;;3.13;100.00
10135;BME280;5107;48.850;8.924;2023-11-18T06:43:42;97627.03;;;3.14;100.00
10135;BME280;5107;48.850;8.924;2023-11-18T06:46:21;97623.41;;;3.16;100.00
10135;BME280;5107;48.850;8.924;2023-11-18T06:48:51;97621.13;;;3.24;100.00
10135;BME280;5107;48.850;8.924;2023-11-18T06:51:22;97610.00;;;3.22;100.00
10135;BME280;5107;48.850;8.924;2023-11-18T06:53:51;97605.44;;;3.26;100.00
10135;BME280;5107;48.850;8.924;2023-11-18T06:56:17;97608.88;;;3.26;100.00
10135;BME280;5107;48.850;8.924;2023-11-18T06:58:43;97604.38;;;3.28;100.00
10135;BME280;5107;48.850;8.924;2023-11-18T07:01:11;97604.81;;;3.48;99.69
10135;BME280;5107;48.850;8.924;2023-11-18T07:03:38;97599.59;;;3.73;98.46
10135;BME280;5107;48.850;8.924;2023-11-18T07:06:04;97605.91;;;3.94;97.08
10135;BME280;5107;48.850;8.924;2023-11-18T07:08:31;97609.09;;;4.23;95.08
10135;BME280;5107;48.850;8.924;2023-11-18T07:10:56;97611.53;;;4.50;93.91
10135;BME280;5107;48.850;8.924;2023-11-18T07:13:22;97608.47;;;4.56;92.83
10135;BME280;5107;48.850;8.924;2023-11-18T07:15:49;97615.84;;;4.62;92.69
10135;BME280;5107;48.850;8.924;2023-11-18T07:18:15;97626.72;;;4.80;91.62
10135;BME280;5107;48.850;8.924;2023-11-18T07:20:41;97631.38;;;4.87;91.83
10135;BME280;5107;48.850;8.924;2023-11-18T07:23:07;97631.88;;;4.92;90.99
10135;BME280;5107;48.850;8.924;2023-11-18T07:25:34;97631.44;;;4.99;91.41
10135;BME280;5107;48.850;8.924;2023-11-18T07:27:59;97632.59;;;4.94;91.98
10135;BME280;5107;48.850;8.924;2023-11-18T07:30:27;97622.00;;;5.09;91.85
10135;BME280;5107;48.850;8.924;2023-11-18T07:32:53;97625.22;;;4.88;91.29
10135;BME280;5107;48.850;8.924;2023-11-18T07:35:18;97626.06;;;4.89;92.38
10135;BME280;5107;48.850;8.924;2023-11-18T07:37:43;97626.81;;;4.78;92.32
10135;BME280;5107;48.850;8.924;2023-11-18T07:40:09;97624.66;;;4.72;93.20
10135;BME280;5107;48.850;8.924;2023-11-18T07:42:37;97619.06;;;4.66;93.75
10135;BME280;5107;48.850;8.924;2023-11-18T07:45:06;97618.25;;;4.65;93.48
10135;BME280;5107;48.850;8.924;2023-11-18T07:47:43;97615.91;;;4.73;93.41
10135;BME280;5107;48.850;8.924;2023-11-18T07:50:08;97611.84;;;4.69;93.71
10135;BME280;5107;48.850;8.924;2023-11-18T07:52:37;97609.47;;;4.66;93.65
10135;BME280;5107;48.850;8.924;2023-11-18T07:55:03;97602.50;;;4.67;94.32
10135;BME280;5107;48.850;8.924;2023-11-18T07:57:29;97616.19;;;4.81;94.75
10135;BME280;5107;48.850;8.924;2023-11-18T07:59:54;97614.03;;;4.75;93.42
10135;BME280;5107;48.850;8.924;2023-11-18T08:02:19;97614.06;;;4.63;93.52
10135;BME280;5107;48.850;8.924;2023-11-18T08:04:45;97611.16;;;4.67;94.36
10135;BME280;5107;48.850;8.924;2023-11-18T08:07:10;97623.06;;;4.58;94.64
10135;BME280;5107;48.850;8.924;2023-11-18T08:09:36;97621.72;;;4.53;95.37
10135;BME280;5107;48.850;8.924;2023-11-18T08:12:05;97614.56;;;4.44;94.88
10135;BME280;5107;48.850;8.924;2023-11-18T08:14:31;97624.28;;;4.42;95.54
10135;BME280;5107;48.850;8.924;2023-11-18T08:16:57;97625.50;;;4.36;96.46
10135;BME280;5107;48.850;8.924;2023-11-18T08:19:25;97635.00;;;4.37;96.50
10135;BME280;5107;48.850;8.924;2023-11-18T08:21:50;97636.22;;;4.44;96.68
10135;BME280;5107;48.850;8.924;2023-11-18T08:24:17;97629.25;;;4.45;96.40
10135;BME280;5107;48.850;8.924;2023-11-18T08:26:42;97627.56;;;4.44;96.58
10135;BME280;5107;48.850;8.924;2023-11-18T08:29:07;97622.88;;;4.49;96.38
10135;BME280;5107;48.850;8.924;2023-11-18T08:31:33;97626.81;;;4.54;96.83
10135;BME280;5107;48.850;8.924;2023-11-18T08:33:59;97631.00;;;4.57;95.76
10135;BME280;5107;48.850;8.924;2023-11-18T08:36:25;97628.19;;;4.60;96.22
10135;BME280;5107;48.850;8.924;2023-11-18T08:38:52;97620.00;;;4.65;96.32
10135;BME280;5107;48.850;8.924;2023-11-18T08:41:17;97603.75;;;4.61;95.60
10135;BME280;5107;48.850;8.924;2023-11-18T08:43:45;97614.34;;;4.71;95.67
10135;BME280;5107;48.850;8.924;2023-11-18T08:46:14;97623.72;;;4.73;95.52
10135;BME280;5107;48.850;8.924;2023-11-18T08:48:39;97624.22;;;4.78;95.07
10135;BME280;5107;48.850;8.924;2023-11-18T08:51:05;97622.16;;;4.94;95.74
10135;BME280;5107;48.850;8.924;2023-11-18T08:53:33;97616.06;;;5.07;94.46
10135;BME280;5107;48.850;8.924;2023-11-18T08:56:07;97610.63;;;5.10;94.26
10135;BME280;5107;48.850;8.924;2023-11-18T08:58:38;97602.13;;;5.19;93.81
10135;BME280;5107;48.850;8.924;2023-11-18T09:01:05;97599.84;;;5.14;93.21
10135;BME280;5107;48.850;8.924;2023-11-18T09:03:41;97604.16;;;5.26;93.36
10135;BME280;5107;48.850;8.924;2023-11-18T09:06:17;97612.34;;;5.44;92.94
10135;BME280;5107;48.850;8.924;2023-11-18T09:08:43;97617.13;;;5.50;92.33
10135;BME280;5107;48.850;8.924;2023-11-18T09:11:13;97622.25;;;5.63;92.67
10135;BME280;5107;48.850;8.924;2023-11-18T09:13:49;97606.00;;;5.70;91.68
10135;BME280;5107;48.850;8.924;2023-11-18T09:16:19;97614.53;;;5.72;91.25
10135;BME280;5107;48.850;8.924;2023-11-18T09:18:47;97606.22;;;5.79;90.61
10135;BME280;5107;48.850;8.924;2023-11-18T09:21:13;97609.09;;;5.87;90.94
10135;BME280;5107;48.850;8.924;2023-11-18T09:23:45;97606.00;;;5.82;90.87
10135;BME280;5107;48.850;8.924;2023-11-18T09:26:13;97608.38;;;5.73;91.23
10135;BME280;5107;48.850;8.924;2023-11-18T09:28:43;97603.25;;;5.72;91.55
10135;BME280;5107;48.850;8.924;2023-11-18T09:31:17;97604.84;;;5.97;91.24
10135;BME280;5107;48.850;8.924;2023-11-18T09:33:43;97610.88;;;5.86;90.49
10135;BME280;5107;48.850;8.924;2023-11-18T09:36:17;97612.34;;;5.90;91.42
10135;BME280;5107;48.850;8.924;2023-11-18T09:38:44;97597.38;;;5.92;91.75
10135;BME280;5107;48.850;8.924;2023-11-18T09:41:12;97614.13;;;6.01;90.94
10135;BME280;5107;48.850;8.924;2023-11-18T09:43:38;97609.47;;;6.16;91.07
10135;BME280;5107;48.850;8.924;2023-11-18T09:46:22;97614.34;;;6.31;90.71
10135;BME280;5107;48.850;8.924;2023-11-18T09:48:53;97606.50;;;6.42;89.72
10135;BME280;5107;48.850;8.924;2023-11-18T09:51:31;97588.06;;;6.44;88.56
10135;BME280;5107;48.850;8.924;2023-11-18T09:54:01;97589.81;;;6.55;88.07
10135;BME280;5107;48.850;8.924;2023-11-18T09:59:31;97594.69;;;6.91;86.26
10135;BME280;5107;48.850;8.924;2023-11-18T10:02:03;97599.09;;;7.11;85.51
10135;BME280;5107;48.850;8.924;2023-11-18T10:04:37;97594.03;;;7.10;86.03
10135;BME280;5107;48.850;8.924;2023-11-18T10:07:05;97591.88;;;7.04;85.08
10135;BME280;5107;48.850;8.924;2023-11-18T10:09:32;97597.00;;;7.05;85.78
10135;BME280;5107;48.850;8.924;2023-11-18T10:12:04;97592.03;;;7.02;84.88
10135;BME280;5107;48.850;8.924;2023-11-18T10:14:36;97597.00;;;7.05;85.36
10135;BME280;5107;48.850;8.924;2023-11-18T10:17:08;97593.13;;;7.20;85.37
10135;BME280;5107;48.850;8.924;2023-11-18T10:22:28;97584.00;;;7.15;82.91
10135;BME280;5107;48.850;8.924;2023-11-18T10:24:55;97592.47;;;7.07;84.58
10135;BME280;5107;48.850;8.924;2023-11-18T10:27:25;97598.25;;;6.90;84.65
10135;BME280;5107;48.850;8.924;2023-11-18T10:29:55;97598.66;;;7.06;84.46
10135;BME280;5107;48.850;8.924;2023-11-18T10:32:23;97595.09;;;7.07;84.38
10135;BME280;5107;48.850;8.924;2023-11-18T10:34:56;97608.06;;;7.30;84.01
10135;BME280;5107;48.850;8.924;2023-11-18T10:37:22;97601.56;;;7.24;84.12
10135;BME280;5107;48.850;8.924;2023-11-18T10:39:48;97605.09;;;7.34;84.87
10135;BME280;5107;48.850;8.924;2023-11-18T10:42:17;97592.50;;;7.49;83.66
10135;BME280;5107;48.850;8.924;2023-11-18T10:44:56;97589.81;;;7.39;83.61
10135;BME280;5107;48.850;8.924;2023-11-18T10:47:28;97586.88;;;7.33;83.64
10135;BME280;5107;48.850;8.924;2023-11-18T10:49:57;97586.47;;;7.37;85.12
10135;BME280;5107;48.850;8.924;2023-11-18T10:52:24;97580.81;;;7.53;85.53
10135;BME280;5107;48.850;8.924;2023-11-18T10:54:52;97586.00;;;7.43;84.40
10135;BME280;5107;48.850;8.924;2023-11-18T10:57:20;97590.25;;;7.65;84.43
10135;BME280;5107;48.850;8.924;2023-11-18T11:00:03;97566.63;;;7.55;84.02
10135;BME280;5107;48.850;8.924;2023-11-18T11:02:38;97562.91;;;7.58;84.36
10135;BME280;5107;48.850;8.924;2023-11-18T11:05:09;97570.00;;;7.67;84.24
10135;BME280;5107;48.850;8.924;2023-11-18T11:07:42;97567.38;;;7.67;83.51
10135;BME280;5107;48.850;8.924;2023-11-18T11:10:07;97570.47;;;7.51;84.09
10135;BME280;5107;48.850;8.924;2023-11-18T11:12:36;97566.53;;;7.36;85.38
10135;BME280;5107;48.850;8.924;2023-11-18T11:15:12;97577.09;;;7.55;85.91
10135;BME280;5107;48.850;8.924;2023-11-18T11:17:48;97574.34;;;7.57;85.25
10135;BME280;5107;48.850;8.924;2023-11-18T11:20:21;97573.91;;;7.52;85.76
10135;BME280;5107;48.850;8.924;2023-11-18T11:26:13;97566.06;;;7.52;85.34
10135;BME280;5107;48.850;8.924;2023-11-18T11:28:48;97569.09;;;7.57;85.36
10135;BME280;5107;48.850;8.924;2023-11-18T11:31:30;97553.16;;;7.60;85.40
10135;BME280;5107;48.850;8.924;2023-11-18T11:34:01;97552.38;;;7.69;84.72
10135;BME280;5107;48.850;8.924;2023-11-18T11:36:37;97548.47;;;7.63;85.05
10135;BME280;5107;48.850;8.924;2023-11-18T11:39:06;97544.59;;;7.58;84.81
10135;BME280;5107;48.850;8.924;2023-11-18T11:41:36;97541.06;;;7.69;84.89
10135;BME280;5107;48.850;8.924;2023-11-18T11:44:03;97531.84;;;7.74;85.15
10135;BME280;5107;48.850;8.924;2023-11-18T11:46:31;97526.78;;;7.82;84.10
10135;BME280;5107;48.850;8.924;2023-11-18T11:49:02;97513.63;;;7.73;82.82
10135;BME280;5107;48.850;8.924;2023-11-18T11:51:54;97516.72;;;7.87;83.56
10135;BME280;5107;48.850;8.924;2023-11-18T11:54:30;97510.00;;;7.94;82.78
10135;BME280;5107;48.850;8.924;2023-11-18T11:57:02;97511.41;;;8.08;82.86
10135;BME280;5107;48.850;8.924;2023-11-18T12:02:10;97506.47;;;8.24;81.56
10135;BME280;5107;48.850;8.924;2023-11-18T12:04:36;97502.63;;;8.28;82.30
10135;BME280;5107;48.850;8.924;2023-11-18T12:07:05;97504.59;;;8.36;82.35
10135;BME280;5107;48.850;8.924;2023-11-18T12:09:31;97501.69;;;8.39;81.53
10135;BME280;5107;48.850;8.924;2023-11-18T12:12:10;97497.13;;;8.31;82.47
10135;BME280;5107;48.850;8.924;2023-11-18T12:14:51;97495.97;;;8.24;82.56
10135;BME280;5107;48.850;8.924;2023-11-18T12:20:42;97471.53;;;8.05;82.18
10135;BME280;5107;48.850;8.924;2023-11-18T12:23:09;97462.69;;;7.96;82.80
10135;BME280;5107;48.850;8.924;2023-11-18T12:25:46;97462.22;;;7.81;82.79
10135;BME280;5107;48.850;8.924;2023-11-18T12:28:17;97463.47;;;7.77;82.62
10135;BME280;5107;48.850;8.924;2023-11-18T12:30:53;97468.00;;;7.75;83.54
10135;BME280;5107;48.850;8.924;2023-11-18T12:33:22;97468.19;;;7.83;84.24
10135;BME280;5107;48.850;8.924;2023-11-18T12:40:56;97460.41;;;7.72;84.65
10135;BME280;5107;48.850;8.924;2023-11-18T12:44:28;97455.22;;;7.42;85.97
10135;BME280;5107;48.850;8.924;2023-11-18T12:49:04;97451.88;;;7.40;86.27
10135;BME280;5107;48.850;8.924;2023-11-18T12:51:32;97448.06;;;7.44;85.95
10135;BME280;5107;48.850;8.924;2023-11-18T12:54:01;97447.53;;;7.50;85.62
10135;BME280;5107;48.850;8.924;2023-11-18T12:56:28;97434.84;;;7.55;84.99
10135;BME280;5107;48.850;8.924;2023-11-18T12:58:55;97441.09;;;7.63;84.70
10135;BME280;5107;48.850;8.924;2023-11-18T13:01:22;97449.94;;;7.72;85.21
10135;BME280;5107;48.850;8.924;2023-11-18T13:03:47;97437.28;;;7.37;83.79
10135;BME280;5107;48.850;8.924;2023-11-18T13:06:13;97440.88;;;7.36;84.54
10135;BME280;5107;48.850;8.924;2023-11-18T13:08:40;97437.69;;;7.33;84.34
10135;BME280;5107;48.850;8.924;2023-11-18T13:11:05;97430.78;;;7.32;84.62
10135;BME280;5107;48.850;8.924;2023-11-18T13:13:34;97424.59;;;7.33;84.62
10135;BME280;5107;48.850;8.924;2023-11-18T13:16:00;97423.19;;;7.29;83.83
10135;BME280;5107;48.850;8.924;2023-11-18T13:18:25;97422.06;;;7.21;83.84
10135;BME280;5107;48.850;8.924;2023-11-18T13:20:55;97410.44;;;7.14;83.75
10135;BME280;5107;48.850;8.924;2023-11-18T13:23:25;97397.78;;;7.10;83.66
10135;BME280;5107;48.850;8.924;2023-11-18T13:25:50;97405.44;;;7.02;84.51
10135;BME280;5107;48.850;8.924;2023-11-18T13:28:22;97412.47;;;7.01;85.47
10135;BME280;5107;48.850;8.924;2023-11-18T13:30:48;97403.16;;;6.88;85.20
10135;BME280;5107;48.850;8.924;2023-11-18T13:33:14;97401.25;;;6.90;85.18
10135;BME280;5107;48.850;8.924;2023-11-18T13:35:39;97395.50;;;6.96;84.72
10135;BME280;5107;48.850;8.924;2023-11-18T13:38:05;97380.91;;;6.93;84.89
10135;BME280;5107;48.850;8.924;2023-11-18T13:40:47;97372.91;;;6.95;84.97
10135;BME280;5107;48.850;8.924;2023-11-18T13:43:13;97373.84;;;6.84;84.19
10135;BME280;5107;48.850;8.924;2023-11-18T13:45:38;97374.25;;;6.89;84.62
10135;BME280;5107;48.850;8.924;2023-11-18T13:48:05;97373.56;;;6.87;85.01
10135;BME280;5107;48.850;8.924;2023-11-18T13:50:31;97370.69;;;6.90;85.03
10135;BME280;5107;48.850;8.924;2023-11-18T13:53:01;97370.44;;;6.93;85.07
10135;BME280;5107;48.850;8.924;2023-11-18T13:55:27;97365.88;;;6.95;85.03